Arden, Delaware
Current Conditions -  °F | °C
As of 1:51 AM on Wednesday 22 Oct 2014 (Local Time) from KILG Reporting Station
Overcast Overcast  
Wind Chill: 55°   Ceiling: 5500
Heat Index: 55°   Visibility: 10mi
Dew Point: 51°   Wind: 8mph
Humidity: 86%   Direction: 360°N
Pressure: 29.86"   Gusts: NA
Location:  39.81°N, 75.49°W
Report Text: KILG 220551Z 36007KT 10SM BKN055 OVC075 13/11 A2986 RMK AO2 LTG DSNT SW AND NW SLP110 T01280106 10150 20128 58008
Loading
Personal Weather Stations






























Interactive Weather Map
Tropical Storm Tracking
New forecast layout! Learn more

10-Day Weather Forecast

Advertisements
Track Severe Weather on mobile